createdAt,value
2022-09-06T00:00:04.911Z,1002.77
2022-09-06T00:01:04.940Z,1002.80
2022-09-06T00:02:04.938Z,1002.82
2022-09-06T00:03:04.989Z,1002.77
2022-09-06T00:04:04.906Z,1002.78
2022-09-06T00:05:04.888Z,1002.80
2022-09-06T00:06:04.899Z,1002.74
2022-09-06T00:07:04.841Z,1002.77
2022-09-06T00:08:04.811Z,1002.77
2022-09-06T00:09:04.832Z,1002.72
2022-09-06T00:10:04.800Z,1002.74
2022-09-06T00:11:04.842Z,1002.74
2022-09-06T00:12:04.790Z,1002.73
2022-09-06T00:13:04.780Z,1002.72
2022-09-06T00:14:04.750Z,1002.77
2022-09-06T00:15:04.750Z,1002.71
2022-09-06T00:16:04.799Z,1002.73
2022-09-06T00:17:04.724Z,1002.66
2022-09-06T00:18:04.680Z,1002.71
2022-09-06T00:19:04.692Z,1002.68
2022-09-06T00:20:04.700Z,1002.69
2022-09-06T00:21:04.677Z,1002.58
2022-09-06T00:22:04.662Z,1002.57
2022-09-06T00:23:04.648Z,1002.57
2022-09-06T00:24:04.610Z,1002.61
2022-09-06T00:25:04.628Z,1002.55
2022-09-06T00:26:04.589Z,1002.59
2022-09-06T00:27:04.619Z,1002.57
2022-09-06T00:28:04.573Z,1002.53
2022-09-06T00:29:04.547Z,1002.57
2022-09-06T00:30:04.529Z,1002.58
2022-09-06T00:31:04.589Z,1002.60
2022-09-06T00:32:04.515Z,1002.57
2022-09-06T00:33:04.485Z,1002.56
2022-09-06T00:34:04.474Z,1002.58
2022-09-06T00:35:04.456Z,1002.58
2022-09-06T00:36:04.447Z,1002.60
2022-09-06T00:37:04.429Z,1002.58
2022-09-06T00:38:04.448Z,1002.52
2022-09-06T00:39:04.408Z,1002.58
2022-09-06T00:40:04.502Z,1002.57
2022-09-06T00:41:04.386Z,1002.58
2022-09-06T00:42:04.377Z,1002.48
2022-09-06T00:43:04.367Z,1002.50
2022-09-06T00:44:04.347Z,1002.49
2022-09-06T00:45:04.327Z,1002.54
2022-09-06T00:46:04.362Z,1002.50
2022-09-06T00:47:04.309Z,1002.50
2022-09-06T00:48:04.317Z,1002.57
2022-09-06T00:49:04.288Z,1002.50
2022-09-06T00:50:04.280Z,1002.50
2022-09-06T00:51:04.270Z,1002.49
2022-09-06T00:52:04.251Z,1002.50
2022-09-06T00:53:04.227Z,1002.48
2022-09-06T00:54:04.239Z,1002.50
2022-09-06T00:55:04.222Z,1002.40
2022-09-06T00:56:04.189Z,1002.49
2022-09-06T00:57:04.179Z,1002.51
2022-09-06T00:58:04.167Z,1002.53
2022-09-06T00:59:04.156Z,1002.51
2022-09-06T01:00:04.148Z,1002.48
2022-09-06T01:01:04.128Z,1002.50
2022-09-06T01:02:04.245Z,1002.50
2022-09-06T01:03:04.097Z,1002.53
2022-09-06T01:04:04.112Z,1002.65
2022-09-06T01:05:04.075Z,1002.69
2022-09-06T01:06:04.066Z,1002.80
2022-09-06T01:07:04.048Z,1002.86
2022-09-06T01:08:04.050Z,1002.96
2022-09-06T01:09:04.105Z,1003.01
2022-09-06T01:10:04.008Z,1003.17
2022-09-06T01:11:03.996Z,1003.11
2022-09-06T01:12:03.988Z,1003.19
2022-09-06T01:13:03.967Z,1003.26
2022-09-06T01:14:03.985Z,1003.29
2022-09-06T01:15:03.961Z,1003.19
2022-09-06T01:16:03.951Z,1003.33
2022-09-06T01:17:03.920Z,1003.38
2022-09-06T01:18:03.915Z,1003.36
2022-09-06T01:19:03.913Z,1003.30
2022-09-06T01:20:03.899Z,1003.30
2022-09-06T01:21:03.871Z,1003.29
2022-09-06T01:22:03.870Z,1003.36
2022-09-06T01:23:03.846Z,1003.38
2022-09-06T01:24:03.857Z,1003.34
2022-09-06T01:25:03.816Z,1003.33
2022-09-06T01:26:03.816Z,1003.33
2022-09-06T01:27:03.794Z,1003.33
2022-09-06T01:28:03.784Z,1003.25
2022-09-06T01:29:03.783Z,1003.23
2022-09-06T01:30:03.754Z,1003.28
2022-09-06T01:31:03.832Z,1003.25
2022-09-06T01:32:03.742Z,1003.26
2022-09-06T01:33:03.714Z,1003.25
2022-09-06T01:34:03.713Z,1003.21
2022-09-06T01:35:03.685Z,1003.29
2022-09-06T01:36:03.675Z,1003.24
2022-09-06T01:37:10.453Z,1003.25
2022-09-06T01:38:04.667Z,1003.29
2022-09-06T01:39:03.643Z,1003.28
2022-09-06T01:40:03.695Z,1003.25
2022-09-06T01:41:03.613Z,1003.27
2022-09-06T01:42:03.613Z,1003.24
2022-09-06T01:43:05.997Z,1003.23
2022-09-06T01:44:03.597Z,1003.29
2022-09-06T01:45:03.565Z,1003.36
2022-09-06T01:46:03.581Z,1003.27
2022-09-06T01:47:03.534Z,1003.28
2022-09-06T01:48:03.522Z,1003.32
2022-09-06T01:49:03.516Z,1003.24
2022-09-06T01:50:03.505Z,1003.28
2022-09-06T01:51:03.473Z,1003.28
2022-09-06T01:52:03.472Z,1003.29
2022-09-06T01:53:03.474Z,1003.31
2022-09-06T01:54:03.461Z,1003.37
2022-09-06T01:55:03.442Z,1003.36
2022-09-06T01:56:03.424Z,1003.36
2022-09-06T01:57:03.402Z,1003.37
2022-09-06T01:58:03.392Z,1003.34
2022-09-06T01:59:03.525Z,1003.32
2022-09-06T02:00:03.374Z,1003.36
2022-09-06T02:01:03.415Z,1003.45
2022-09-06T02:02:03.375Z,1003.34
2022-09-06T02:03:03.332Z,1003.31
2022-09-06T02:04:03.336Z,1003.29
2022-09-06T02:05:03.302Z,1003.35
2022-09-06T02:06:03.290Z,1003.37
2022-09-06T02:07:03.279Z,1003.29
2022-09-06T02:08:03.283Z,1003.29
2022-09-06T02:09:03.260Z,1003.32
2022-09-06T02:10:03.243Z,1003.29
2022-09-06T02:11:03.233Z,1003.39
2022-09-06T02:12:03.212Z,1003.35
2022-09-06T02:13:03.193Z,1003.25
2022-09-06T02:14:03.193Z,1003.37
2022-09-06T02:15:03.170Z,1003.30
2022-09-06T02:16:03.173Z,1003.34
2022-09-06T02:17:03.175Z,1003.32
2022-09-06T02:18:03.134Z,1003.35
2022-09-06T02:19:03.130Z,1003.33
2022-09-06T02:20:03.111Z,1003.34
2022-09-06T02:21:03.091Z,1003.31
2022-09-06T02:22:03.095Z,1003.24
2022-09-06T02:23:03.070Z,1003.33
2022-09-06T02:24:03.070Z,1003.32
2022-09-06T02:25:03.050Z,1003.33
2022-09-06T02:26:03.031Z,1003.30
2022-09-06T02:27:03.023Z,1003.30
2022-09-06T02:28:03.018Z,1003.34
2022-09-06T02:29:03.001Z,1003.34
2022-09-06T02:30:02.997Z,1003.34
2022-09-06T02:31:02.992Z,1003.39
2022-09-06T02:32:02.950Z,1003.34
2022-09-06T02:33:02.941Z,1003.35
2022-09-06T02:34:02.942Z,1003.38
2022-09-06T02:35:02.921Z,1003.37
2022-09-06T02:36:02.900Z,1003.40
2022-09-06T02:37:02.898Z,1003.35
2022-09-06T02:38:02.871Z,1003.37
2022-09-06T02:39:02.880Z,1003.36
2022-09-06T02:40:02.913Z,1003.37
2022-09-06T02:41:02.839Z,1003.33
2022-09-06T02:42:02.831Z,1003.39
2022-09-06T02:43:02.812Z,1003.40
2022-09-06T02:44:02.792Z,1003.42
2022-09-06T02:45:02.796Z,1003.48
2022-09-06T02:46:02.807Z,1003.47
2022-09-06T02:47:02.860Z,1003.40
2022-09-06T02:48:02.750Z,1003.31
2022-09-06T02:49:02.738Z,1003.36
2022-09-06T02:50:02.734Z,1003.24
2022-09-06T02:51:02.720Z,1003.30
2022-09-06T02:52:02.702Z,1003.25
2022-09-06T02:53:02.699Z,1003.23
2022-09-06T02:54:02.669Z,1003.25
2022-09-06T02:55:02.650Z,1003.23
2022-09-06T02:56:02.646Z,1003.23
2022-09-06T02:57:02.632Z,1003.30
2022-09-06T02:58:02.633Z,1003.31
2022-09-06T02:59:02.607Z,1003.32
2022-09-06T03:00:02.588Z,1003.31
2022-09-06T03:01:02.599Z,1003.37
2022-09-06T03:02:02.598Z,1003.29
2022-09-06T03:03:02.628Z,1003.26
2022-09-06T03:04:02.538Z,1003.33
2022-09-06T03:05:02.521Z,1003.26
2022-09-06T03:06:02.517Z,1003.23
2022-09-06T03:07:02.497Z,1003.18
2022-09-06T03:08:02.499Z,1003.19
2022-09-06T03:09:02.491Z,1003.19
2022-09-06T03:10:02.474Z,1003.14
2022-09-06T03:11:02.450Z,1003.30
2022-09-06T03:12:02.437Z,1003.28
2022-09-06T03:13:02.418Z,1003.28
2022-09-06T03:14:02.438Z,1003.29
2022-09-06T03:15:02.397Z,1003.18
2022-09-06T03:16:02.386Z,1003.18
2022-09-06T03:17:02.410Z,1003.18
2022-09-06T03:18:02.387Z,1003.11
2022-09-06T03:19:02.364Z,1003.08
2022-09-06T03:20:02.355Z,1003.04
2022-09-06T03:21:02.326Z,1003.04
2022-09-06T03:22:02.317Z,1003.08
2022-09-06T03:23:02.286Z,1003.08
2022-09-06T03:24:02.286Z,1003.10
2022-09-06T03:25:02.284Z,1003.14
2022-09-06T03:26:02.265Z,1003.15
2022-09-06T03:27:02.239Z,1003.15
2022-09-06T03:28:02.234Z,1003.11
2022-09-06T03:29:02.218Z,1003.13
2022-09-06T03:30:02.204Z,1003.18
2022-09-06T03:31:02.266Z,1003.21
2022-09-06T03:32:02.197Z,1003.19
2022-09-06T03:33:03.035Z,1003.21
2022-09-06T03:34:02.155Z,1003.20
2022-09-06T03:35:02.145Z,1003.17
2022-09-06T03:36:02.125Z,1003.14
2022-09-06T03:37:02.204Z,1003.14
2022-09-06T03:38:02.105Z,1003.16
2022-09-06T03:39:02.096Z,1003.13
2022-09-06T03:40:02.129Z,1003.24
2022-09-06T03:41:02.066Z,1003.30
2022-09-06T03:42:02.076Z,1003.22
2022-09-06T03:43:02.045Z,1003.26
2022-09-06T03:44:02.024Z,1003.19
2022-09-06T03:45:02.007Z,1003.18
2022-09-06T03:46:02.067Z,1003.10
2022-09-06T03:47:01.984Z,1003.05
2022-09-06T03:48:01.994Z,1003.07
2022-09-06T03:49:01.959Z,1002.93
2022-09-06T03:50:01.953Z,1002.93
2022-09-06T03:51:01.938Z,1002.97
2022-09-06T03:52:01.936Z,1002.97
2022-09-06T03:53:01.913Z,1003.01
2022-09-06T03:54:01.915Z,1002.96
2022-09-06T03:55:01.884Z,1002.91
2022-09-06T03:56:01.877Z,1002.88
2022-09-06T03:57:01.857Z,1002.86
2022-09-06T03:58:01.843Z,1002.90
2022-09-06T03:59:01.844Z,1002.91
2022-09-06T04:00:01.823Z,1002.93
2022-09-06T04:01:01.914Z,1002.97
2022-09-06T04:02:01.827Z,1002.95
2022-09-06T04:03:02.081Z,1002.88
2022-09-06T04:04:01.775Z,1002.83
2022-09-06T04:05:01.854Z,1002.85
2022-09-06T04:06:01.733Z,1002.83
2022-09-06T04:07:01.727Z,1002.81
2022-09-06T04:08:01.734Z,1002.77
2022-09-06T04:09:01.705Z,1002.75
2022-09-06T04:10:01.703Z,1002.79
2022-09-06T04:11:01.682Z,1002.69
2022-09-06T04:12:01.668Z,1002.64
2022-09-06T04:13:01.653Z,1002.69
2022-09-06T04:14:01.643Z,1002.67
2022-09-06T04:15:01.624Z,1002.65
2022-09-06T04:16:01.635Z,1002.61
2022-09-06T04:17:01.641Z,1002.62
2022-09-06T04:18:04.923Z,1002.60
2022-09-06T04:19:02.575Z,1002.61
2022-09-06T04:20:01.566Z,1002.63
2022-09-06T04:21:01.545Z,1002.67
2022-09-06T04:22:01.562Z,1002.74
2022-09-06T04:23:01.514Z,1002.89
2022-09-06T04:24:01.509Z,1002.87
2022-09-06T04:25:01.492Z,1003.00
2022-09-06T04:26:01.482Z,1002.82
2022-09-06T04:27:01.473Z,1002.98
2022-09-06T04:28:01.469Z,1002.97
2022-09-06T04:29:01.444Z,1002.79
2022-09-06T04:30:01.431Z,1002.84
2022-09-06T04:31:04.706Z,1002.81
2022-09-06T04:32:01.482Z,1002.84
2022-09-06T04:33:01.420Z,1002.90
2022-09-06T04:34:01.387Z,1002.90
2022-09-06T04:35:01.371Z,1002.87
2022-09-06T04:36:01.368Z,1002.91
2022-09-06T04:37:01.341Z,1002.91
2022-09-06T04:38:01.339Z,1002.91
2022-09-06T04:39:01.340Z,1002.96
2022-09-06T04:40:01.354Z,1002.96
2022-09-06T04:41:01.291Z,1002.90
2022-09-06T04:42:01.273Z,1002.92
2022-09-06T04:43:01.271Z,1002.96
2022-09-06T04:44:01.249Z,1002.91
2022-09-06T04:45:01.250Z,1002.97
2022-09-06T04:46:01.300Z,1003.01
2022-09-06T04:47:01.211Z,1003.01
2022-09-06T04:48:01.200Z,1003.04
2022-09-06T04:49:01.201Z,1003.01
2022-09-06T04:50:01.191Z,1003.06
2022-09-06T04:51:01.170Z,1003.09
2022-09-06T04:52:01.150Z,1003.03
2022-09-06T04:53:01.140Z,1003.08
2022-09-06T04:54:01.119Z,1003.13
2022-09-06T04:55:01.110Z,1003.09
2022-09-06T04:56:01.104Z,1003.13
2022-09-06T04:57:01.091Z,1003.08
2022-09-06T04:58:01.070Z,1003.13
2022-09-06T04:59:01.061Z,1003.12
2022-09-06T05:00:01.040Z,1003.08
2022-09-06T05:01:01.117Z,1003.12
2022-09-06T05:02:01.078Z,1003.18
2022-09-06T05:03:01.009Z,1003.14
2022-09-06T05:04:00.991Z,1003.12
2022-09-06T05:05:00.979Z,1003.18
2022-09-06T05:06:00.960Z,1003.21
2022-09-06T05:07:00.980Z,1003.24
2022-09-06T05:08:00.938Z,1003.15
2022-09-06T05:09:00.929Z,1003.18
2022-09-06T05:10:00.912Z,1003.14
2022-09-06T05:11:00.899Z,1003.20
2022-09-06T05:12:00.909Z,1003.25
2022-09-06T05:13:00.873Z,1003.20
2022-09-06T05:14:00.858Z,1003.26
2022-09-06T05:15:00.861Z,1003.19
2022-09-06T05:16:00.864Z,1003.23
2022-09-06T05:17:00.828Z,1003.24
2022-09-06T05:18:00.828Z,1003.23
2022-09-06T05:19:00.801Z,1003.23
2022-09-06T05:20:00.806Z,1003.22
2022-09-06T05:21:00.768Z,1003.26
2022-09-06T05:22:00.769Z,1003.27
2022-09-06T05:23:00.747Z,1003.30
2022-09-06T05:24:00.797Z,1003.27
2022-09-06T05:25:00.726Z,1003.26
2022-09-06T05:26:00.708Z,1003.27
2022-09-06T05:27:00.944Z,1003.28
2022-09-06T05:28:00.678Z,1003.26
2022-09-06T05:29:00.691Z,1003.29
2022-09-06T05:30:00.678Z,1003.25
2022-09-06T05:31:00.640Z,1003.29
2022-09-06T05:32:00.680Z,1003.23
2022-09-06T05:33:00.615Z,1003.24
2022-09-06T05:34:00.620Z,1003.27
2022-09-06T05:35:00.610Z,1003.22
2022-09-06T05:36:00.587Z,1003.24
2022-09-06T05:37:00.573Z,1003.32
2022-09-06T05:38:00.569Z,1003.30
2022-09-06T05:39:00.559Z,1003.33
2022-09-06T05:40:00.610Z,1003.25
2022-09-06T05:41:00.566Z,1003.33
2022-09-06T05:42:00.506Z,1003.33
2022-09-06T05:43:00.492Z,1003.32
2022-09-06T05:44:00.477Z,1003.30
2022-09-06T05:45:00.457Z,1003.32
2022-09-06T05:46:00.575Z,1003.38
2022-09-06T05:47:00.464Z,1003.33
2022-09-06T05:48:00.435Z,1003.36
2022-09-06T05:49:00.420Z,1003.29
2022-09-06T05:50:00.407Z,1003.34
2022-09-06T05:51:00.385Z,1003.29
2022-09-06T05:52:00.383Z,1003.33
2022-09-06T05:53:00.376Z,1003.30
2022-09-06T05:54:00.349Z,1003.31
2022-09-06T05:55:00.327Z,1003.26
2022-09-06T05:56:00.328Z,1003.27
2022-09-06T05:57:00.306Z,1003.24
2022-09-06T05:58:00.311Z,1003.22
2022-09-06T05:59:00.306Z,1003.22
2022-09-06T06:00:00.277Z,1003.24
2022-09-06T06:01:00.281Z,1003.19
2022-09-06T06:02:03.210Z,1003.18
2022-09-06T06:03:01.235Z,1003.21
2022-09-06T06:04:00.225Z,1003.20
2022-09-06T06:05:00.216Z,1003.19
2022-09-06T06:06:00.193Z,1003.23
2022-09-06T06:07:00.178Z,1003.17
2022-09-06T06:08:00.165Z,1003.16
2022-09-06T06:09:00.295Z,1003.15
2022-09-06T06:10:00.167Z,1003.14
2022-09-06T06:11:00.148Z,1003.13
2022-09-06T06:12:00.115Z,1003.14
2022-09-06T06:13:00.103Z,1003.14
2022-09-06T06:14:00.110Z,1003.08
2022-09-06T06:15:00.089Z,1003.09
2022-09-06T06:16:00.113Z,1003.10
2022-09-06T06:17:00.110Z,1003.04
2022-09-06T06:18:00.044Z,1003.13
2022-09-06T06:19:00.024Z,1003.14
2022-09-06T06:20:00.016Z,1003.09
2022-09-06T06:20:59.995Z,1003.10
2022-09-06T06:21:59.995Z,1003.04
2022-09-06T06:22:59.974Z,1003.00
2022-09-06T06:23:59.964Z,1003.06
2022-09-06T06:24:59.946Z,1002.98
2022-09-06T06:25:59.934Z,1003.00
2022-09-06T06:26:59.936Z,1002.97
2022-09-06T06:27:59.924Z,1003.04
2022-09-06T06:28:59.893Z,1002.89
2022-09-06T06:29:59.885Z,1002.91
2022-09-06T06:30:59.863Z,1002.92
2022-09-06T06:31:59.893Z,1002.99
2022-09-06T06:32:59.863Z,1002.96
2022-09-06T06:33:59.831Z,1002.91
2022-09-06T06:34:59.814Z,1002.95
2022-09-06T06:35:59.821Z,1002.96
2022-09-06T06:36:59.795Z,1002.92
2022-09-06T06:37:59.794Z,1002.90
2022-09-06T06:38:59.780Z,1002.88
2022-09-06T06:39:59.778Z,1002.86
2022-09-06T06:41:03.301Z,1002.85
2022-09-06T06:42:00.735Z,1002.89
2022-09-06T06:42:59.720Z,1002.91
2022-09-06T06:43:59.704Z,1002.89
2022-09-06T06:44:59.701Z,1002.91
2022-09-06T06:45:59.755Z,1002.86
2022-09-06T06:46:59.668Z,1002.89
2022-09-06T06:47:59.660Z,1002.91
2022-09-06T06:48:59.636Z,1002.87
2022-09-06T06:49:59.642Z,1002.89
2022-09-06T06:50:59.610Z,1002.86
2022-09-06T06:51:59.594Z,1002.91
2022-09-06T06:52:59.592Z,1002.86
2022-09-06T06:53:59.583Z,1002.86
2022-09-06T06:54:59.559Z,1002.84
2022-09-06T06:55:59.561Z,1002.79
2022-09-06T06:56:59.530Z,1002.87
2022-09-06T06:57:59.531Z,1002.83
2022-09-06T06:58:59.515Z,1002.83
2022-09-06T06:59:59.496Z,1002.82
2022-09-06T07:00:59.542Z,1002.86
2022-09-06T07:01:59.733Z,1002.85
2022-09-06T07:02:59.471Z,1002.85
2022-09-06T07:03:59.448Z,1002.83
2022-09-06T07:04:59.496Z,1002.77
2022-09-06T07:06:14.619Z,1002.78
2022-09-06T07:08:00.400Z,1002.75
2022-09-06T07:08:59.380Z,1002.83
2022-09-06T07:11:00.361Z,1002.84
2022-09-06T07:11:59.339Z,1002.79
2022-09-06T07:12:59.339Z,1002.85
2022-09-06T07:13:59.320Z,1002.80
2022-09-06T07:14:59.308Z,1002.80
2022-09-06T07:15:59.328Z,1002.81
2022-09-06T07:16:59.280Z,1002.78
2022-09-06T07:17:59.477Z,1002.83
2022-09-06T07:18:59.250Z,1002.85
2022-09-06T07:20:15.126Z,1002.85
2022-09-06T07:22:04.403Z,1002.82
2022-09-06T07:24:08.224Z,1002.79
2022-09-06T07:25:00.178Z,1002.79
2022-09-06T07:25:59.169Z,1002.88
2022-09-06T07:28:03.930Z,1002.80
2022-09-06T07:29:00.138Z,1002.76
2022-09-06T07:29:59.108Z,1002.87
2022-09-06T07:30:59.123Z,1002.81
2022-09-06T07:32:14.412Z,1002.74
2022-09-06T07:33:00.059Z,1002.75
2022-09-06T07:33:59.059Z,1002.75
2022-09-06T07:34:59.058Z,1002.81
2022-09-06T07:35:59.055Z,1002.72
2022-09-06T07:36:59.009Z,1002.80
2022-09-06T07:37:59.009Z,1002.80
2022-09-06T07:38:58.989Z,1002.82
2022-09-06T07:39:59.013Z,1002.78
2022-09-06T07:40:59.039Z,1002.80
2022-09-06T07:41:58.948Z,1002.73
2022-09-06T07:42:58.941Z,1002.79
2022-09-06T07:43:58.939Z,1002.71
2022-09-06T07:44:58.918Z,1002.77
2022-09-06T07:45:58.931Z,1002.77
2022-09-06T07:48:00.003Z,1002.86
2022-09-06T07:48:58.867Z,1002.79
2022-09-06T07:50:59.858Z,1002.74
2022-09-06T07:51:59.000Z,1002.65
2022-09-06T07:54:26.123Z,1002.64
2022-09-06T07:54:59.787Z,1002.66
2022-09-06T07:55:58.781Z,1002.67
2022-09-06T07:56:58.768Z,1002.72
2022-09-06T07:57:58.756Z,1002.65
2022-09-06T07:58:58.741Z,1002.57
2022-09-06T07:59:58.717Z,1002.63
2022-09-06T08:00:58.735Z,1002.61
2022-09-06T08:01:58.754Z,1002.64
2022-09-06T08:02:58.693Z,1002.66
2022-09-06T08:03:58.668Z,1002.68
2022-09-06T08:04:58.666Z,1002.66
2022-09-06T08:06:13.974Z,1002.61
2022-09-06T08:08:59.812Z,1002.64
2022-09-06T08:09:58.605Z,1002.63
2022-09-06T08:10:58.586Z,1002.63
2022-09-06T08:11:58.577Z,1002.68
2022-09-06T08:12:58.555Z,1002.69
2022-09-06T08:13:58.553Z,1002.66
2022-09-06T08:14:58.536Z,1002.75
2022-09-06T08:15:58.577Z,1002.64
2022-09-06T08:16:58.510Z,1002.66
2022-09-06T08:17:58.551Z,1002.64
2022-09-06T08:18:58.477Z,1002.64
2022-09-06T08:19:58.475Z,1002.67
2022-09-06T08:20:58.465Z,1002.71
2022-09-06T08:21:58.455Z,1002.73
2022-09-06T08:22:58.427Z,1002.68
2022-09-06T08:23:58.417Z,1002.67
2022-09-06T08:24:58.407Z,1002.68
2022-09-06T08:25:58.407Z,1002.66
2022-09-06T08:26:58.387Z,1002.66
2022-09-06T08:27:58.376Z,1002.62
2022-09-06T08:28:58.346Z,1002.61
2022-09-06T08:29:58.356Z,1002.68
2022-09-06T08:30:58.326Z,1002.67
2022-09-06T08:31:58.382Z,1002.72
2022-09-06T08:32:58.309Z,1002.67
2022-09-06T08:33:58.307Z,1002.71
2022-09-06T08:34:58.286Z,1002.72
2022-09-06T08:35:58.273Z,1002.69
2022-09-06T08:36:58.253Z,1002.73
2022-09-06T08:37:58.248Z,1002.72
2022-09-06T08:38:58.227Z,1002.69
2022-09-06T08:39:58.256Z,1002.71
2022-09-06T08:40:58.207Z,1002.67
2022-09-06T08:41:58.186Z,1002.75
2022-09-06T08:42:58.186Z,1002.78
2022-09-06T08:44:59.157Z,1002.78
2022-09-06T08:45:58.144Z,1002.74
2022-09-06T08:46:58.160Z,1002.71
2022-09-06T08:47:58.126Z,1002.71
2022-09-06T08:48:58.107Z,1002.74
2022-09-06T08:49:58.098Z,1002.70
2022-09-06T08:50:58.086Z,1002.72
2022-09-06T08:51:58.065Z,1002.73
2022-09-06T08:53:59.059Z,1002.78
2022-09-06T08:54:58.016Z,1002.75
2022-09-06T08:55:58.027Z,1002.67
2022-09-06T08:56:57.996Z,1002.74
2022-09-06T08:57:57.986Z,1002.69
2022-09-06T08:58:57.967Z,1002.66
2022-09-06T08:59:57.975Z,1002.69
2022-09-06T09:00:57.966Z,1002.70
2022-09-06T09:01:57.990Z,1002.56
2022-09-06T09:02:57.915Z,1002.60
2022-09-06T09:03:57.908Z,1002.58
2022-09-06T09:04:57.915Z,1002.61
2022-09-06T09:05:57.885Z,1002.56
2022-09-06T09:06:57.868Z,1002.62
2022-09-06T09:07:57.858Z,1002.67
2022-09-06T09:08:57.838Z,1002.60
2022-09-06T09:09:57.835Z,1002.58
2022-09-06T09:10:57.814Z,1002.69
2022-09-06T09:11:57.797Z,1002.69
2022-09-06T09:12:57.799Z,1002.71
2022-09-06T09:13:57.785Z,1002.66
2022-09-06T09:14:57.774Z,1002.70
2022-09-06T09:15:57.806Z,1002.67
2022-09-06T09:16:57.737Z,1002.65
2022-09-06T09:17:57.725Z,1002.57
2022-09-06T09:18:57.720Z,1002.66
2022-09-06T09:19:57.716Z,1002.61
2022-09-06T09:20:57.685Z,1002.52
2022-09-06T09:21:57.670Z,1002.58
2022-09-06T09:22:57.656Z,1002.65
2022-09-06T09:23:57.645Z,1002.58
2022-09-06T09:24:57.645Z,1002.59
2022-09-06T09:25:57.625Z,1002.63
2022-09-06T09:26:57.605Z,1002.62
2022-09-06T09:27:57.656Z,1002.63
2022-09-06T09:28:57.577Z,1002.66
2022-09-06T09:30:58.581Z,1002.54
2022-09-06T09:31:57.597Z,1002.52
2022-09-06T09:32:57.535Z,1002.47
2022-09-06T09:33:57.525Z,1002.39
2022-09-06T09:34:57.524Z,1002.44
2022-09-06T09:35:57.507Z,1002.44
2022-09-06T09:38:04.896Z,1002.49
2022-09-06T09:38:58.456Z,1002.50
2022-09-06T09:39:57.532Z,1002.44
2022-09-06T09:40:57.438Z,1002.46
2022-09-06T09:41:57.425Z,1002.43
2022-09-06T09:42:57.415Z,1002.44
2022-09-06T09:44:00.098Z,1002.42
2022-09-06T09:44:58.395Z,1002.40
2022-09-06T09:45:57.376Z,1002.37
2022-09-06T09:46:57.375Z,1002.40
2022-09-06T09:47:57.346Z,1002.40
2022-09-06T09:48:57.337Z,1002.41
2022-09-06T09:49:57.336Z,1002.40
2022-09-06T09:50:57.307Z,1002.33
2022-09-06T09:51:57.306Z,1002.37
2022-09-06T09:52:57.286Z,1002.34
2022-09-06T09:53:57.273Z,1002.30
2022-09-06T09:54:57.268Z,1002.25
2022-09-06T09:55:57.249Z,1002.24
2022-09-06T09:56:57.234Z,1002.22
2022-09-06T09:57:57.229Z,1002.23
2022-09-06T09:58:57.206Z,1002.17
2022-09-06T09:59:57.218Z,1002.20
2022-09-06T10:00:57.203Z,1002.18
2022-09-06T10:01:57.183Z,1002.16
2022-09-06T10:02:57.204Z,1002.20
2022-09-06T10:04:58.146Z,1002.20
2022-09-06T10:06:03.116Z,1002.10
2022-09-06T10:07:13.368Z,1002.13
2022-09-06T10:07:58.140Z,1002.15
2022-09-06T10:08:57.156Z,1002.15
2022-09-06T10:09:57.164Z,1002.14
2022-09-06T10:10:57.057Z,1002.11
2022-09-06T10:11:57.047Z,1002.13
2022-09-06T10:12:57.040Z,1002.08
2022-09-06T10:13:57.027Z,1002.14
2022-09-06T10:14:57.028Z,1002.08
2022-09-06T10:15:57.027Z,1002.07
2022-09-06T10:16:56.989Z,1002.13
2022-09-06T10:17:57.027Z,1002.08
2022-09-06T10:18:56.956Z,1002.09
2022-09-06T10:19:56.967Z,1002.10
2022-09-06T10:20:56.936Z,1002.14
2022-09-06T10:21:56.932Z,1002.14
2022-09-06T10:22:56.916Z,1002.13
2022-09-06T10:24:57.906Z,1002.07
2022-09-06T10:25:56.875Z,1002.04
2022-09-06T10:26:56.871Z,1002.04
2022-09-06T10:28:12.268Z,1001.99
2022-09-06T10:28:57.837Z,1002.08
2022-09-06T10:29:56.847Z,1002.02
2022-09-06T10:30:56.854Z,1002.05
2022-09-06T10:31:56.817Z,1001.97
2022-09-06T10:32:56.793Z,1002.01
2022-09-06T10:33:56.776Z,1001.98
2022-09-06T10:34:56.776Z,1002.00
2022-09-06T10:35:56.747Z,1001.99
2022-09-06T10:36:56.750Z,1002.01
2022-09-06T10:37:56.738Z,1002.02
2022-09-06T10:39:00.363Z,1002.00
2022-09-06T10:39:57.770Z,1001.99
2022-09-06T10:40:56.697Z,1002.06
2022-09-06T10:41:56.687Z,1002.01
2022-09-06T10:42:56.677Z,1002.01
2022-09-06T10:43:56.649Z,1001.98
2022-09-06T10:44:56.659Z,1001.92
2022-09-06T10:45:56.637Z,1001.96
2022-09-06T10:46:56.636Z,1001.96
2022-09-06T10:47:56.597Z,1002.02
2022-09-06T10:48:56.591Z,1001.97
2022-09-06T10:49:56.587Z,1001.99
2022-09-06T10:50:56.558Z,1001.96
2022-09-06T10:51:56.566Z,1001.96
2022-09-06T10:52:56.538Z,1001.99
2022-09-06T10:53:56.536Z,1002.01
2022-09-06T10:54:56.528Z,1002.01
2022-09-06T10:55:59.769Z,1002.04
2022-09-06T10:56:57.487Z,1002.03
2022-09-06T10:59:57.512Z,1001.98
2022-09-06T11:00:56.439Z,1001.90
2022-09-06T11:01:56.509Z,1001.93
2022-09-06T11:04:00.304Z,1001.91
2022-09-06T11:05:57.388Z,1001.88
2022-09-06T11:06:56.367Z,1001.91
2022-09-06T11:08:58.280Z,1001.89
2022-09-06T11:09:56.338Z,1001.81
2022-09-06T11:10:56.318Z,1001.81
2022-09-06T11:11:56.308Z,1001.84
2022-09-06T11:12:56.299Z,1001.86
2022-09-06T11:13:56.287Z,1001.80
2022-09-06T11:14:56.278Z,1001.93
2022-09-06T11:15:56.321Z,1001.87
2022-09-06T11:16:56.238Z,1001.91
2022-09-06T11:17:56.235Z,1001.89
2022-09-06T11:18:56.218Z,1001.95
2022-09-06T11:19:56.219Z,1002.00
2022-09-06T11:20:56.196Z,1001.99
2022-09-06T11:21:56.178Z,1002.02
2022-09-06T11:22:56.168Z,1001.97
2022-09-06T11:23:56.159Z,1001.96
2022-09-06T11:24:56.158Z,1001.91
2022-09-06T11:25:56.139Z,1001.95
2022-09-06T11:26:56.118Z,1001.91
2022-09-06T11:27:58.093Z,1001.96
2022-09-06T11:28:56.100Z,1001.89
2022-09-06T11:29:56.099Z,1001.91
2022-09-06T11:30:56.140Z,1001.93
2022-09-06T11:32:57.051Z,1001.89
2022-09-06T11:33:59.490Z,1001.90
2022-09-06T11:34:57.039Z,1001.90
2022-09-06T11:35:56.010Z,1001.88
2022-09-06T11:36:56.000Z,1001.91
2022-09-06T11:37:56.000Z,1001.90
2022-09-06T11:38:55.989Z,1001.84
2022-09-06T11:40:56.948Z,1001.89
2022-09-06T11:41:55.939Z,1001.84
2022-09-06T11:42:55.930Z,1001.88
2022-09-06T11:43:55.927Z,1001.89
2022-09-06T11:44:55.926Z,1001.90
2022-09-06T11:45:55.913Z,1001.85
2022-09-06T11:46:55.932Z,1001.92
2022-09-06T11:47:55.870Z,1001.88
2022-09-06T11:48:55.858Z,1001.90
2022-09-06T11:49:55.848Z,1001.97
2022-09-06T11:50:55.830Z,1001.93
2022-09-06T11:51:55.810Z,1001.90
2022-09-06T11:52:55.800Z,1001.93
2022-09-06T11:53:55.829Z,1001.87
2022-09-06T11:54:55.799Z,1001.86
2022-09-06T11:55:55.769Z,1001.82
2022-09-06T11:56:55.765Z,1001.84
2022-09-06T11:57:55.740Z,1001.86
2022-09-06T11:58:55.739Z,1001.82
2022-09-06T11:59:55.729Z,1001.82
2022-09-06T12:00:55.720Z,1001.86
2022-09-06T12:01:55.710Z,1001.80
2022-09-06T12:04:04.880Z,1001.88
2022-09-06T12:04:59.681Z,1001.87
2022-09-06T12:05:55.651Z,1001.81
2022-09-06T12:06:55.652Z,1001.84
2022-09-06T12:07:55.630Z,1001.80
2022-09-06T12:08:55.630Z,1001.71
2022-09-06T12:09:55.620Z,1001.84
2022-09-06T12:10:55.607Z,1001.77
2022-09-06T12:11:55.592Z,1001.77
2022-09-06T12:12:55.569Z,1001.80
2022-09-06T12:13:55.568Z,1001.81
2022-09-06T12:14:55.567Z,1001.77
2022-09-06T12:15:55.594Z,1001.81
2022-09-06T12:16:55.520Z,1001.80
2022-09-06T12:17:55.516Z,1001.77
2022-09-06T12:18:55.511Z,1001.79
2022-09-06T12:19:55.504Z,1001.67
2022-09-06T12:20:55.493Z,1001.66
2022-09-06T12:21:55.474Z,1001.75
2022-09-06T12:22:55.460Z,1001.68
2022-09-06T12:23:55.441Z,1001.71
2022-09-06T12:24:55.441Z,1001.73
2022-09-06T12:25:55.431Z,1001.77
2022-09-06T12:26:56.101Z,1001.75
2022-09-06T12:27:55.405Z,1001.74
2022-09-06T12:28:55.391Z,1001.71